• Join FlightAware (Why Join?)
  • Login
  • US Flag 
11:37AM EDT


 

Airport Tracker/Info


-or-


 

Live Flight TrackerFlight Track Log ✈ N826CH ✈ 27-Jan-2014 ✈ KRBL - KUAO

Flight Track Log - Related Links

Times and Time Zones

All times are in EST time to prevent confusion due to time zone crossing. See the N826CH flight status page for this flight to view local times or setup timezone preferences in your user account.

Time Position Orientation Groundspeed Altitude Reporting Facility
EST Latitude Longitude Course Direction KTS MPH feet Rate Location/Type
03:24PM 40.1397 -122.2594 341° North 172 198 10,500  Level Seattle Center
03:25PM 40.1867 -122.2806 341° North 181 208 10,700 420 Climbing Seattle Center
03:26PM 40.2328 -122.2903 351° North 175 201 11,400 600 Climbing Seattle Center
03:27PM 40.2731 -122.3097 340° North 160 184 12,000 240 Climbing Seattle Center
03:28PM 40.3164 -122.3281 342° North 161 185 12,000  Level Seattle Center
03:29PM 40.3719 -122.3514 342° North 172 198 12,000  Level Seattle Center
03:30PM 40.4186 -122.3706 343° North 175 201 12,000  Level Seattle Center
03:31PM 40.4667 -122.3906 342° North 178 205 12,000  Level Seattle Center
03:32PM 40.5139 -122.4097 343° North 179 206 12,000  Level Seattle Center
03:33PM 40.5608 -122.4294 342° North 178 205 12,000  Level Seattle Center
03:34PM 40.6072 -122.4486 343° North 177 204 12,000  Level Seattle Center
03:35PM 40.6536 -122.4686 342° North 176 203 12,000  Level Seattle Center
03:36PM 40.7003 -122.4883 342° North 176 203 12,000  Level Seattle Center
03:38PM 40.7467 -122.5075 343° North 175 201 12,000  Level Seattle Center
03:39PM 40.7931 -122.5269 342° North 175 201 12,000  Level Seattle Center
03:40PM 40.8400 -122.5464 343° North 176 203 12,000  Level Seattle Center
03:40PM 40.8681 -122.5561 345° North 178 205 12,000  Level Oakland Center
03:41PM 40.9156 -122.5769 342° North 180 207 12,000  Level Oakland Center
03:42PM 40.9622 -122.5978 341° North 177 204 12,000  Level Oakland Center
03:43PM 41.0103 -122.6167 343° North 179 206 12,000 -60 Level Oakland Center
03:44PM 41.0578 -122.6369 342° North 180 207 11,900  Descending Oakland Center
03:45PM 41.1036 -122.6608 339° North 179 206 12,000  Climbing Oakland Center
03:46PM 41.1611 -122.6839 343° North 179 206 11,900 -60 Descending Oakland Center
03:47PM 41.2081 -122.7047 342° North 178 205 11,900  Level Oakland Center
03:48PM 41.2558 -122.7247 343° North 179 206 11,900  Level Oakland Center
03:49PM 41.3042 -122.7428 344° North 180 207 11,900  Level Oakland Center
03:50PM 41.3522 -122.7619 343° North 181 208 11,900  Level Oakland Center
03:51PM 41.4022 -122.7842 342° North 184 212 11,900  Level Oakland Center
03:52PM 41.4497 -122.8053 342° North 184 212 11,900  Level Oakland Center
03:53PM 41.5006 -122.8094 356° North 188 216 11,900  Level Oakland Center
03:54PM 41.5506 -122.8161 354° North 186 214 11,900  Level Oakland Center
03:55PM 41.6092 -122.8219 356° North 182 209 11,900  Level Oakland Center
03:56PM 41.6572 -122.8272 355° North 176 203 11,900 -60 Level Oakland Center
03:57PM 41.7106 -122.8339 355° North 185 213 11,800  Descending Oakland Center
03:58PM 41.7614 -122.8394 355° North 185 213 11,900 60 Climbing Oakland Center
03:59PM 41.8100 -122.8458 354° North 182 209 12,000  Climbing Oakland Center
04:01PM 41.8594 -122.8472 359° North 180 207 11,900 -60 Descending Oakland Center
04:02PM 41.9078 -122.8514 356° North 176 203 11,900  Level Oakland Center
04:03PM 41.9575 -122.8575 355° North 177 204 11,900  Level Oakland Center
04:04PM 42.0094 -122.8625 356° North 183 211 11,900  Level Oakland Center
04:05PM 42.0847 -122.8719 355° North 179 206 12,000  Climbing Seattle Center
04:06PM 42.1378 -122.8772 356° North 179 206 12,000  Level Seattle Center
04:07PM 42.1878 -122.8825 356° North 180 207 12,000  Level Seattle Center
04:08PM 42.2369 -122.8875 356° North 179 206 12,000  Level Seattle Center
04:09PM 42.2867 -122.8933 355° North 179 206 12,000  Level Seattle Center
04:10PM 42.3369 -122.8983 356° North 180 207 12,000  Level Seattle Center
04:11PM 42.3878 -122.9006 358° North 182 209 12,000  Level Seattle Center
04:12PM 42.4403 -122.9086 354° North 177 204 12,000  Level Seattle Center
04:13PM 42.4908 -122.9147 355° North 182 209 12,000 -60 Level Seattle Center
04:14PM 42.5411 -122.9236 353° North 181 208 11,900  Descending Seattle Center
04:15PM 42.5900 -122.9333 352° North 177 204 12,000 60 Climbing Seattle Center
04:16PM 42.6397 -122.9403 354° North 180 207 12,100  Climbing Seattle Center
04:17PM 42.6933 -122.9539 349° North 183 211 12,000 -120 Descending Seattle Center
04:18PM 42.7444 -122.9631 352° North 184 212 11,900 -60 Descending Seattle Center
04:19PM 42.7950 -122.9733 352° North 185 213 11,900  Level Seattle Center
04:20PM 42.8458 -122.9833 352° North 186 214 11,900  Level Seattle Center
04:21PM 42.8975 -122.9922 353° North 187 215 11,900  Level Seattle Center
04:22PM 42.9528 -123.0017 353° North 191 220 12,000  Climbing Seattle Center
04:23PM 43.0042 -123.0131 351° North 189 217 11,900 -60 Descending Seattle Center
04:24PM 43.0547 -123.0228 352° North 183 211 11,900  Level Seattle Center
04:25PM 43.1064 -123.0317 353° North 185 213 11,900  Level Seattle Center
04:26PM 43.1550 -123.0414 352° North 186 214 11,900  Level Seattle Center
04:27PM 43.2119 -123.0531 352° North 185 213 11,900  Level Seattle Center
04:28PM 43.2650 -123.0558 358° North 187 215 11,900  Level Seattle Center
04:29PM 43.3164 -123.0644 353° North 185 213 11,900  Level Seattle Center
04:30PM 43.3681 -123.0758 351° North 184 212 11,900  Level Seattle Center
04:31PM 43.4217 -123.0864 352° North 190 219 11,900  Level Seattle Center
04:32PM 43.4731 -123.0975 351° North 184 212 11,900  Level Seattle Center
04:33PM 43.5258 -123.1072 352° North 186 214 12,000  Climbing Seattle Center
04:34PM 43.5789 -123.1169 352° North 188 216 12,000  Level Seattle Center
04:35PM 43.6303 -123.1264 352° North 183 211 12,000  Level Seattle Center
04:36PM 43.6822 -123.1367 352° North 185 213 12,000  Level Seattle Center
04:37PM 43.7358 -123.1467 352° North 189 217 12,000  Level Seattle Center
04:39PM 43.7878 -123.1572 352° North 185 213 12,000  Level Seattle Center
04:40PM 43.8414 -123.1672 352° North 191 220 12,000  Level Seattle Center
04:41PM 43.8894 -123.1767 352° North 186 214 12,000  Level Seattle Center
04:42PM 43.9433 -123.1875 352° North 190 219 12,000  Level Seattle Center
04:43PM 43.9958 -123.1972 352° North 189 217 12,000  Level Seattle Center
04:44PM 44.0475 -123.2072 352° North 186 214 12,000  Level Seattle Center
04:45PM 44.0989 -123.2169 352° North 184 212 12,000  Level Seattle Center
04:46PM 44.1564 -123.2281 352° North 191 220 12,000 -120 Level Seattle Center
04:47PM 44.2075 -123.2386 352° North 185 213 11,800 -600 Descending Seattle Center
04:48PM 44.2669 -123.2500 352° North 209 241 10,800 -840 Descending Seattle Center
04:49PM 44.3194 -123.2592 353° North 217 250 10,200 -420 Descending Seattle Center
04:50PM 44.3742 -123.2678 354° North 205 236 10,000 -120 Descending Seattle Center
04:51PM 44.4356 -123.2814 351° North 187 215 10,000  Level Seattle Center
04:52PM 44.4875 -123.2922 352° North 186 214 10,000  Level Seattle Center
04:53PM 44.5367 -123.2908 North 185 213 10,000  Level Seattle Center
04:54PM 44.5883 -123.2717 15° North 182 209 10,000  Level Seattle Center
04:55PM 44.6369 -123.2525 16° North 183 211 10,000 -180 Level Seattle Center
04:56PM 44.6878 -123.2328 15° North 187 215 9,700 -540 Descending Seattle Center
04:57PM 44.7406 -123.2136 14° North 194 223 8,900 -900 Descending Seattle Center
04:58PM 44.7953 -123.1925 15° North 202 232 7,900 -1,080 Descending Seattle Center
04:59PM 44.8506 -123.1706 16° North 206 237 6,800 -900 Descending Seattle Center
05:00PM 44.9042 -123.1497 15° North 204 235 6,100 -780 Descending Seattle Center
05:01PM 44.9439 -123.1061 38° Northeast 190 219 5,300 -840 Descending Seattle Center
05:02PM 44.9839 -123.0650 36° Northeast 183 211 4,400 -660 Descending Seattle Center
05:03PM 45.0308 -123.0128 38° Northeast 181 208 4,000 -360 Descending Seattle Center
05:04PM 45.0742 -122.9758 31° Northeast 181 208 3,700 -300 Descending Seattle Center